Time;durP1;ratioP1;P1;durP2;ratioP2;P2;SDS_P1;SDS_P2;PMS_P1;PMS_P2;Temp;Humidity;BMP_temperature;BMP_pressure;BME280_temperature;BME280_humidity;BME280_pressure;Samples;Min_cycle;Max_cycle;Signal;HPM_P1;HPM_P2
2023/07/08 00:00:35;;;;;;;;;;;21.10;78.80;;;;;;5074989;28;20004;-65
2023/07/08 00:03:02;;;;;;;;;;;21.10;77.70;;;;;;5074995;28;20063;-68
2023/07/08 00:05:30;;;;;;;;;;;21.00;77.80;;;;;;5074952;28;20001;-67
2023/07/08 00:07:57;;;;;;;;;;;21.00;78.70;;;;;;5075049;28;20001;-67
2023/07/08 00:10:27;;;;;;;;;;;21.00;78.20;;;;;;5075374;28;20001;-67
2023/07/08 00:12:55;;;;;;;;;;;21.00;79.10;;;;;;5075138;28;20420;-67
2023/07/08 00:15:26;;;;;;;;;;;21.00;80.00;;;;;;5075272;28;20304;-67
2023/07/08 00:17:52;;;;;;;;;;;20.90;81.00;;;;;;5075598;28;20432;-67
2023/07/08 00:20:20;;;;;;;;;;;20.90;81.20;;;;;;5074678;28;20405;-66
2023/07/08 00:22:49;;;;;;;;;;;20.80;81.70;;;;;;5074552;28;20427;-67
2023/07/08 00:25:16;;;;;;;;;;;20.80;82.50;;;;;;5075053;28;20055;-66
2023/07/08 00:27:43;;;;;;;;;;;20.80;83.10;;;;;;5075018;28;20001;-67
2023/07/08 00:30:18;;;;;;;;;;;20.80;84.00;;;;;;5074693;28;20001;-67
2023/07/08 00:32:45;;;;;;;;;;;20.80;83.60;;;;;;5074770;28;20040;-67
2023/07/08 00:35:11;;;;;;;;;;;20.70;85.10;;;;;;5074947;28;20011;-67
2023/07/08 00:37:38;;;;;;;;;;;20.70;85.70;;;;;;5074556;28;20032;-66
2023/07/08 00:40:14;;;;;;;;;;;20.70;86.50;;;;;;5075007;28;20436;-66
2023/07/08 00:42:41;;;;;;;;;;;20.70;86.80;;;;;;5074864;28;20108;-67
2023/07/08 00:45:16;;;;;;;;;;;20.60;87.50;;;;;;5074568;28;20012;-66
2023/07/08 00:47:43;;;;;;;;;;;20.60;88.10;;;;;;5074687;28;19996;-67
2023/07/08 00:50:11;;;;;;;;;;;20.60;88.50;;;;;;5074982;28;20005;-66
2023/07/08 00:52:37;;;;;;;;;;;20.60;89.10;;;;;;5074906;28;20378;-67
2023/07/08 00:55:06;;;;;;;;;;;20.50;88.40;;;;;;5075373;28;20336;-67
2023/07/08 00:57:35;;;;;;;;;;;20.50;88.50;;;;;;5074690;28;20001;-67
2023/07/08 01:00:04;;;;;;;;;;;20.50;89.90;;;;;;5074620;28;20436;-67
2023/07/08 01:02:34;;;;;;;;;;;20.50;90.00;;;;;;5074937;28;20013;-67
2023/07/08 01:05:05;;;;;;;;;;;20.40;90.70;;;;;;5074544;28;20001;-67
2023/07/08 01:07:32;;;;;;;;;;;20.40;91.00;;;;;;5074666;28;20008;-67
2023/07/08 01:10:02;;;;;;;;;;;20.40;91.50;;;;;;5074347;28;20001;-67
2023/07/08 01:12:31;;;;;;;;;;;20.40;91.60;;;;;;5074803;28;20001;-67
2023/07/08 01:15:02;;;;;;;;;;;20.30;91.50;;;;;;5074287;28;20012;-68
2023/07/08 01:17:32;;;;;;;;;;;20.30;92.40;;;;;;5076627;28;19997;-66
2023/07/08 01:19:59;;;;;;;;;;;20.30;92.10;;;;;;5078051;28;20056;-67
2023/07/08 01:22:32;;;;;;;;;;;20.30;91.40;;;;;;5077928;28;20013;-67
2023/07/08 01:25:02;;;;;;;;;;;20.20;92.20;;;;;;5078054;28;19998;-67
2023/07/08 01:27:30;;;;;;;;;;;20.20;92.80;;;;;;5078400;28;20088;-66
2023/07/08 01:29:57;;;;;;;;;;;20.20;93.00;;;;;;5077956;28;20100;-67
2023/07/08 01:32:24;;;;;;;;;;;20.20;93.60;;;;;;5077794;28;20001;-67
2023/07/08 01:35:00;;;;;;;;;;;20.20;93.00;;;;;;5078217;28;20001;-66
2023/07/08 01:37:33;;;;;;;;;;;20.10;93.70;;;;;;5077663;28;20075;-67
2023/07/08 01:40:15;;;;;;;;;;;20.10;93.90;;;;;;5078056;28;20011;-67
2023/07/08 01:42:41;;;;;;;;;;;20.10;93.60;;;;;;5077771;28;20554;-67
2023/07/08 01:45:11;;;;;;;;;;;20.10;94.30;;;;;;5078241;28;20001;-67
2023/07/08 01:47:38;;;;;;;;;;;20.00;95.00;;;;;;5077994;28;20001;-67
2023/07/08 01:50:05;;;;;;;;;;;20.00;95.60;;;;;;5077760;28;20011;-67
2023/07/08 01:52:33;;;;;;;;;;;20.00;96.10;;;;;;5077740;28;20345;-66
2023/07/08 01:54:59;;;;;;;;;;;20.00;96.20;;;;;;5077681;28;20001;-67
2023/07/08 01:57:26;;;;;;;;;;;20.00;95.10;;;;;;5077577;28;20329;-66
2023/07/08 01:59:52;;;;;;;;;;;19.90;95.20;;;;;;5077532;28;20381;-67
2023/07/08 02:02:19;;;;;;;;;;;19.90;96.00;;;;;;5077339;28;20027;-66
2023/07/08 02:04:46;;;;;;;;;;;19.80;96.20;;;;;;5077660;28;20012;-66
2023/07/08 02:07:12;;;;;;;;;;;19.80;96.80;;;;;;5077266;28;20040;-66
2023/07/08 02:09:40;;;;;;;;;;;19.80;97.40;;;;;;5077546;28;20009;-66
2023/07/08 02:12:07;;;;;;;;;;;19.80;97.90;;;;;;5077246;28;20079;-67
2023/07/08 02:14:34;;;;;;;;;;;19.80;98.10;;;;;;5077551;28;20011;-66
2023/07/08 02:17:00;;;;;;;;;;;19.70;98.40;;;;;;5077115;28;20001;-67
2023/07/08 02:19:27;;;;;;;;;;;19.70;98.60;;;;;;5077198;28;20001;-67
2023/07/08 02:21:54;;;;;;;;;;;19.70;99.30;;;;;;5076942;28;20009;-67
2023/07/08 02:24:22;;;;;;;;;;;19.60;99.90;;;;;;5076993;28;20126;-66
2023/07/08 02:26:50;;;;;;;;;;;19.60;99.80;;;;;;5076886;28;20440;-67
2023/07/08 02:29:16;;;;;;;;;;;19.60;99.90;;;;;;5076846;28;20001;-66
2023/07/08 02:31:43;;;;;;;;;;;19.60;99.90;;;;;;5076977;28;20096;-67
2023/07/08 02:34:10;;;;;;;;;;;19.60;99.90;;;;;;5076558;28;20001;-66
2023/07/08 02:36:38;;;;;;;;;;;19.60;99.90;;;;;;5076573;28;20021;-67
2023/07/08 02:39:05;;;;;;;;;;;19.60;99.90;;;;;;5076629;28;20008;-67
2023/07/08 02:41:32;;;;;;;;;;;19.50;99.90;;;;;;5076920;28;20001;-67
2023/07/08 02:44:00;;;;;;;;;;;19.50;99.90;;;;;;5076616;28;20023;-67
2023/07/08 02:46:26;;;;;;;;;;;19.50;99.90;;;;;;5076684;28;20012;-67
2023/07/08 02:48:53;;;;;;;;;;;19.50;99.90;;;;;;5076571;28;20052;-67
2023/07/08 02:51:20;;;;;;;;;;;19.50;99.90;;;;;;5076678;28;20045;-67
2023/07/08 02:53:47;;;;;;;;;;;19.50;99.90;;;;;;5076306;28;20012;-67
2023/07/08 02:56:14;;;;;;;;;;;19.50;99.90;;;;;;5076286;28;20008;-67
2023/07/08 02:58:40;;;;;;;;;;;19.50;99.90;;;;;;5076634;28;20001;-68
2023/07/08 03:01:09;;;;;;;;;;;19.40;99.90;;;;;;5076937;28;20012;-67
2023/07/08 03:03:36;;;;;;;;;;;19.40;99.90;;;;;;5076331;28;20376;-67
2023/07/08 03:06:05;;;;;;;;;;;19.40;99.90;;;;;;5076029;28;20001;-67
2023/07/08 03:08:31;;;;;;;;;;;19.40;99.90;;;;;;5076318;28;20058;-67
2023/07/08 03:10:59;;;;;;;;;;;19.30;99.90;;;;;;5075969;28;20001;-67
2023/07/08 03:13:26;;;;;;;;;;;19.30;99.90;;;;;;5075881;28;20006;-66
2023/07/08 03:15:54;;;;;;;;;;;19.30;99.90;;;;;;5076239;28;20354;-67
2023/07/08 03:18:23;;;;;;;;;;;19.20;99.90;;;;;;5075914;28;20001;-68
2023/07/08 03:20:50;;;;;;;;;;;19.20;99.90;;;;;;5076081;28;20071;-67
2023/07/08 03:23:16;;;;;;;;;;;19.10;99.90;;;;;;5076187;28;20345;-67
2023/07/08 03:25:43;;;;;;;;;;;19.10;99.90;;;;;;5075905;28;20477;-66
2023/07/08 03:28:14;;;;;;;;;;;19.10;99.90;;;;;;5075979;28;20377;-66
2023/07/08 03:30:41;;;;;;;;;;;19.10;99.90;;;;;;5075695;28;20090;-67
2023/07/08 03:33:08;;;;;;;;;;;19.00;99.90;;;;;;5075861;28;20104;-66
2023/07/08 03:35:36;;;;;;;;;;;19.00;99.90;;;;;;5075784;28;20313;-66
2023/07/08 03:38:03;;;;;;;;;;;18.90;99.90;;;;;;5075288;28;20021;-67
2023/07/08 03:40:29;;;;;;;;;;;18.90;99.90;;;;;;5074781;28;20461;-67
2023/07/08 03:42:57;;;;;;;;;;;18.80;99.90;;;;;;5075550;28;20043;-67
2023/07/08 03:45:25;;;;;;;;;;;18.80;99.90;;;;;;5075587;28;20385;-67
2023/07/08 03:47:52;;;;;;;;;;;18.80;99.90;;;;;;5075621;28;20011;-66
2023/07/08 03:50:20;;;;;;;;;;;18.80;99.90;;;;;;5075468;28;20011;-68
2023/07/08 03:52:48;;;;;;;;;;;18.80;99.90;;;;;;5075332;28;20001;-67
2023/07/08 03:55:15;;;;;;;;;;;18.80;99.90;;;;;;5075325;28;20005;-67
2023/07/08 03:57:42;;;;;;;;;;;18.80;99.90;;;;;;5075339;28;20001;-65
2023/07/08 04:00:11;;;;;;;;;;;18.80;99.90;;;;;;5075468;28;20112;-66
2023/07/08 04:02:38;;;;;;;;;;;18.80;99.90;;;;;;5075199;28;20467;-66
2023/07/08 04:05:05;;;;;;;;;;;18.80;99.90;;;;;;5075455;28;20084;-66
2023/07/08 04:07:32;;;;;;;;;;;18.80;99.90;;;;;;5075110;28;20433;-67
2023/07/08 04:10:00;;;;;;;;;;;18.80;99.90;;;;;;5074961;28;20044;-67
2023/07/08 04:12:28;;;;;;;;;;;18.80;99.90;;;;;;5075017;28;20008;-67
2023/07/08 04:14:54;;;;;;;;;;;18.80;99.90;;;;;;5075160;28;20012;-66
2023/07/08 04:17:24;;;;;;;;;;;18.80;99.90;;;;;;5075047;28;20012;-67
2023/07/08 04:19:51;;;;;;;;;;;18.80;99.90;;;;;;5075060;28;20009;-66
2023/07/08 04:22:17;;;;;;;;;;;18.80;99.90;;;;;;5075082;28;20001;-66
2023/07/08 04:24:44;;;;;;;;;;;18.80;99.90;;;;;;5074523;28;20027;-66
2023/07/08 04:27:15;;;;;;;;;;;18.80;99.90;;;;;;5074788;28;20001;-66
2023/07/08 04:29:42;;;;;;;;;;;18.90;99.90;;;;;;5075123;28;19997;-67
2023/07/08 04:32:09;;;;;;;;;;;18.90;99.90;;;;;;5074653;28;20001;-67
2023/07/08 04:34:35;;;;;;;;;;;18.90;99.90;;;;;;5074634;28;20572;-67
2023/07/08 04:37:04;;;;;;;;;;;18.90;99.90;;;;;;5074519;28;20021;-67
2023/07/08 04:39:31;;;;;;;;;;;19.00;99.90;;;;;;5074895;28;20060;-67
2023/07/08 04:41:57;;;;;;;;;;;19.00;99.90;;;;;;5074778;28;20276;-66
2023/07/08 04:44:27;;;;;;;;;;;19.10;99.90;;;;;;5074811;28;20124;-67
2023/07/08 04:46:55;;;;;;;;;;;19.10;99.90;;;;;;5074733;28;20001;-67
2023/07/08 04:49:22;;;;;;;;;;;19.10;99.90;;;;;;5074396;28;20001;-67
2023/07/08 04:51:49;;;;;;;;;;;19.20;99.90;;;;;;5077202;28;20375;-67
2023/07/08 04:54:15;;;;;;;;;;;19.20;99.90;;;;;;5078499;28;20001;-67
2023/07/08 04:56:43;;;;;;;;;;;19.20;99.90;;;;;;5078825;28;20001;-67
2023/07/08 04:59:10;;;;;;;;;;;19.30;99.90;;;;;;5078747;28;20375;-67
2023/07/08 05:01:38;;;;;;;;;;;19.30;99.90;;;;;;5078361;28;20333;-67
2023/07/08 05:04:06;;;;;;;;;;;19.30;99.90;;;;;;5078562;28;20520;-67
2023/07/08 05:06:32;;;;;;;;;;;19.30;99.90;;;;;;5078586;28;20005;-67
2023/07/08 05:08:59;;;;;;;;;;;19.40;99.90;;;;;;5078256;28;20055;-67
2023/07/08 05:11:26;;;;;;;;;;;19.40;99.90;;;;;;5078144;28;20001;-67
2023/07/08 05:13:52;;;;;;;;;;;19.50;99.90;;;;;;5078335;28;20102;-66
2023/07/08 05:16:19;;;;;;;;;;;19.50;99.90;;;;;;5077840;28;20001;-67
2023/07/08 05:18:47;;;;;;;;;;;19.50;99.90;;;;;;5085359;28;20397;-68
2023/07/08 05:21:14;;;;;;;;;;;19.60;99.90;;;;;;5085305;28;20060;-68
2023/07/08 05:23:41;;;;;;;;;;;19.60;99.90;;;;;;5085152;28;20013;-67
2023/07/08 05:26:08;;;;;;;;;;;19.60;99.90;;;;;;5086668;28;20000;-68
2023/07/08 05:28:35;;;;;;;;;;;19.70;99.90;;;;;;5085787;28;20005;-68
2023/07/08 05:31:04;;;;;;;;;;;19.70;99.90;;;;;;5087863;28;20001;-67
2023/07/08 05:33:31;;;;;;;;;;;19.70;99.90;;;;;;5088198;28;20058;-68
2023/07/08 05:36:00;;;;;;;;;;;19.80;99.90;;;;;;5087542;28;19997;-67
2023/07/08 05:38:27;;;;;;;;;;;19.80;99.90;;;;;;5086796;28;20047;-67
2023/07/08 05:40:55;;;;;;;;;;;19.90;99.90;;;;;;5086895;28;19997;-68
2023/07/08 05:43:22;;;;;;;;;;;19.90;99.90;;;;;;5086875;28;20017;-67
2023/07/08 05:45:49;;;;;;;;;;;19.90;99.90;;;;;;5086087;28;20001;-67
2023/07/08 05:48:15;;;;;;;;;;;20.00;99.90;;;;;;5085789;28;20060;-68
2023/07/08 05:50:42;;;;;;;;;;;20.00;99.90;;;;;;5085782;28;20100;-68
2023/07/08 05:53:11;;;;;;;;;;;20.10;99.90;;;;;;5086363;28;20001;-68
2023/07/08 05:55:38;;;;;;;;;;;20.10;99.90;;;;;;5086814;28;20083;-68
2023/07/08 05:58:07;;;;;;;;;;;20.20;99.90;;;;;;5087079;28;20033;-68
2023/07/08 06:00:33;;;;;;;;;;;20.20;99.90;;;;;;5087311;28;20392;-68
2023/07/08 06:03:00;;;;;;;;;;;20.30;99.90;;;;;;5085634;28;20096;-68
2023/07/08 06:05:27;;;;;;;;;;;20.30;99.90;;;;;;5087068;28;20021;-68
2023/07/08 06:07:53;;;;;;;;;;;20.30;99.90;;;;;;5085532;28;20001;-67
2023/07/08 06:10:21;;;;;;;;;;;20.40;99.90;;;;;;5085346;28;20011;-68
2023/07/08 06:12:48;;;;;;;;;;;20.40;99.90;;;;;;5085663;28;20105;-69
2023/07/08 06:15:15;;;;;;;;;;;20.50;99.90;;;;;;5085655;28;20087;-68
2023/07/08 06:17:41;;;;;;;;;;;20.50;99.90;;;;;;5086057;28;20099;-68
2023/07/08 06:20:09;;;;;;;;;;;20.60;99.90;;;;;;5085913;28;20040;-68
2023/07/08 06:22:35;;;;;;;;;;;20.70;99.90;;;;;;5087210;28;20027;-68
2023/07/08 06:25:02;;;;;;;;;;;20.80;99.90;;;;;;5086588;28;20151;-67
2023/07/08 06:27:30;;;;;;;;;;;20.90;99.90;;;;;;5087186;28;20070;-67
2023/07/08 06:29:56;;;;;;;;;;;20.90;99.90;;;;;;5086148;28;20004;-68
2023/07/08 06:32:23;;;;;;;;;;;21.00;99.90;;;;;;5084041;28;20013;-68
2023/07/08 06:34:50;;;;;;;;;;;21.10;99.90;;;;;;5083879;28;20050;-68
2023/07/08 06:37:16;;;;;;;;;;;21.10;99.90;;;;;;5083688;28;20096;-68
2023/07/08 06:39:43;;;;;;;;;;;21.20;99.90;;;;;;5082951;28;20012;-68
2023/07/08 06:42:10;;;;;;;;;;;21.30;99.90;;;;;;5082882;28;20011;-68
2023/07/08 06:44:38;;;;;;;;;;;21.30;99.90;;;;;;5081328;28;20333;-68
2023/07/08 06:47:05;;;;;;;;;;;21.40;99.90;;;;;;5081632;28;20012;-67
2023/07/08 06:49:31;;;;;;;;;;;21.50;99.90;;;;;;5082118;28;20091;-68
2023/07/08 06:51:59;;;;;;;;;;;21.60;99.90;;;;;;5082789;28;20097;-68
2023/07/08 06:54:27;;;;;;;;;;;21.70;99.90;;;;;;5082034;28;20064;-68
2023/07/08 06:56:54;;;;;;;;;;;21.80;99.90;;;;;;5082853;28;20001;-68
2023/07/08 06:59:21;;;;;;;;;;;21.90;99.90;;;;;;5082602;28;20009;-68
2023/07/08 07:01:49;;;;;;;;;;;21.90;99.90;;;;;;5082711;28;20438;-68
2023/07/08 07:04:15;;;;;;;;;;;22.00;99.90;;;;;;5082550;28;20071;-68
2023/07/08 07:06:42;;;;;;;;;;;22.10;99.90;;;;;;5083128;28;20074;-68
2023/07/08 07:09:09;;;;;;;;;;;22.10;99.90;;;;;;5082555;28;20001;-68
2023/07/08 07:11:35;;;;;;;;;;;22.30;99.90;;;;;;5081685;28;20001;-68
2023/07/08 07:14:02;;;;;;;;;;;22.30;99.90;;;;;;5081303;28;20084;-67
2023/07/08 07:16:29;;;;;;;;;;;22.40;99.90;;;;;;5081344;28;20032;-67
2023/07/08 07:18:57;;;;;;;;;;;22.40;99.90;;;;;;5081861;28;20001;-68
2023/07/08 07:21:23;;;;;;;;;;;22.50;99.90;;;;;;5082213;28;20055;-67
2023/07/08 07:23:50;;;;;;;;;;;22.50;99.90;;;;;;5081646;28;20033;-68
2023/07/08 07:26:17;;;;;;;;;;;22.60;99.90;;;;;;5081615;28;20088;-68
2023/07/08 07:28:43;;;;;;;;;;;22.70;99.90;;;;;;5082154;28;20040;-67
2023/07/08 07:31:10;;;;;;;;;;;22.70;99.90;;;;;;5081354;28;20044;-68
2023/07/08 07:33:37;;;;;;;;;;;22.80;99.90;;;;;;5082074;28;20369;-68
2023/07/08 07:36:05;;;;;;;;;;;22.80;99.90;;;;;;5080833;28;20011;-68
2023/07/08 07:38:34;;;;;;;;;;;23.00;99.90;;;;;;5080515;28;20402;-68
2023/07/08 07:41:05;;;;;;;;;;;23.10;99.90;;;;;;5079526;28;20092;-68
2023/07/08 07:43:32;;;;;;;;;;;23.20;99.90;;;;;;5079897;28;20115;-68
2023/07/08 07:45:59;;;;;;;;;;;23.20;99.90;;;;;;5079760;28;20127;-69
2023/07/08 07:48:26;;;;;;;;;;;23.30;99.90;;;;;;5080108;28;20001;-68
2023/07/08 07:50:52;;;;;;;;;;;23.30;99.90;;;;;;5079914;28;20060;-68
2023/07/08 07:53:20;;;;;;;;;;;23.50;99.90;;;;;;5079821;28;20055;-68
2023/07/08 07:55:47;;;;;;;;;;;23.50;99.90;;;;;;5080052;28;20080;-68
2023/07/08 07:58:14;;;;;;;;;;;23.60;99.90;;;;;;5079204;28;20087;-68
2023/07/08 08:00:40;;;;;;;;;;;23.60;99.90;;;;;;5079310;28;20001;-68
2023/07/08 08:03:07;;;;;;;;;;;23.70;99.90;;;;;;5078413;28;20005;-67
2023/07/08 08:05:34;;;;;;;;;;;23.70;99.90;;;;;;5078750;28;20060;-68
2023/07/08 08:08:03;;;;;;;;;;;23.80;99.90;;;;;;5078201;28;20325;-68
2023/07/08 08:10:32;;;;;;;;;;;23.90;99.90;;;;;;5078349;28;20038;-68
2023/07/08 08:12:59;;;;;;;;;;;23.90;99.90;;;;;;5078445;28;20012;-68
2023/07/08 08:15:25;;;;;;;;;;;24.00;99.90;;;;;;5077792;28;20098;-68
2023/07/08 08:17:52;;;;;;;;;;;24.10;99.90;;;;;;5077615;28;20057;-68
2023/07/08 08:20:19;;;;;;;;;;;24.10;99.90;;;;;;5077885;28;20011;-67
2023/07/08 08:22:46;;;;;;;;;;;24.20;99.90;;;;;;5077733;28;20009;-68
2023/07/08 08:25:13;;;;;;;;;;;24.30;99.90;;;;;;5077538;28;20019;-67
2023/07/08 08:27:41;;;;;;;;;;;24.40;99.90;;;;;;5077745;28;20047;-68
2023/07/08 08:30:08;;;;;;;;;;;24.50;99.90;;;;;;5076880;28;20100;-68
2023/07/08 08:32:35;;;;;;;;;;;24.50;99.90;;;;;;5077505;28;20056;-68
2023/07/08 08:35:01;;;;;;;;;;;24.60;99.90;;;;;;5077419;28;20055;-68
2023/07/08 08:37:28;;;;;;;;;;;24.70;99.90;;;;;;5077111;28;20075;-67
2023/07/08 08:39:55;;;;;;;;;;;24.80;99.90;;;;;;5077058;28;20044;-67
2023/07/08 08:42:26;;;;;;;;;;;24.90;99.90;;;;;;5076741;28;20092;-67
2023/07/08 08:44:57;;;;;;;;;;;25.00;99.90;;;;;;5076763;28;20116;-68
2023/07/08 08:47:31;;;;;;;;;;;25.10;99.90;;;;;;5076892;28;20333;-68
2023/07/08 08:50:01;;;;;;;;;;;25.10;99.20;;;;;;5076695;28;19997;-68
2023/07/08 08:52:28;;;;;;;;;;;25.30;96.50;;;;;;5076578;28;20016;-68
2023/07/08 08:54:55;;;;;;;;;;;25.30;96.70;;;;;;5076149;28;20001;-68
2023/07/08 08:57:35;;;;;;;;;;;25.30;93.90;;;;;;5075860;28;20062;-68
2023/07/08 09:00:04;;;;;;;;;;;25.40;90.30;;;;;;5075561;28;20047;-68
2023/07/08 09:02:34;;;;;;;;;;;25.40;87.40;;;;;;5075772;28;20019;-68
2023/07/08 09:05:03;;;;;;;;;;;25.40;83.10;;;;;;5075872;28;20036;-68
2023/07/08 09:07:32;;;;;;;;;;;25.40;82.80;;;;;;5076226;28;20011;-68
2023/07/08 09:10:02;;;;;;;;;;;25.60;76.70;;;;;;5075306;28;20092;-67
2023/07/08 09:12:30;;;;;;;;;;;25.60;80.30;;;;;;5075996;28;20451;-67
2023/07/08 09:14:57;;;;;;;;;;;25.70;77.60;;;;;;5075279;28;20061;-67
2023/07/08 09:17:30;;;;;;;;;;;25.80;69.00;;;;;;5075235;28;20501;-67
2023/07/08 09:20:00;;;;;;;;;;;25.90;68.50;;;;;;5075167;28;20005;-67
2023/07/08 09:22:32;;;;;;;;;;;25.90;64.40;;;;;;5075362;28;20001;-67
2023/07/08 09:25:02;;;;;;;;;;;26.00;60.20;;;;;;5075255;28;20104;-67
2023/07/08 09:27:28;;;;;;;;;;;26.00;58.80;;;;;;5075484;28;20015;-67
2023/07/08 09:29:56;;;;;;;;;;;26.10;58.00;;;;;;5074951;28;20386;-67
2023/07/08 09:32:25;;;;;;;;;;;26.20;56.30;;;;;;5075074;28;20055;-67
2023/07/08 09:34:53;;;;;;;;;;;26.30;56.60;;;;;;5075426;28;20011;-67
2023/07/08 09:37:24;;;;;;;;;;;26.30;55.10;;;;;;5075421;28;20108;-67
2023/07/08 09:39:52;;;;;;;;;;;26.30;52.10;;;;;;5079436;28;20019;-67
2023/07/08 09:42:22;;;;;;;;;;;26.30;52.60;;;;;;5078898;28;20024;-67
2023/07/08 09:44:48;;;;;;;;;;;26.30;45.70;;;;;;5078557;28;20017;-69
2023/07/08 09:47:21;;;;;;;;;;;26.40;43.60;;;;;;5078889;28;20341;-68
2023/07/08 09:49:49;;;;;;;;;;;26.30;43.70;;;;;;5078213;28;20086;-68
2023/07/08 09:52:17;;;;;;;;;;;26.30;44.10;;;;;;5077999;28;20005;-68
2023/07/08 09:54:45;;;;;;;;;;;26.40;44.10;;;;;;5078001;28;20001;-68
2023/07/08 09:57:14;;;;;;;;;;;26.40;44.70;;;;;;5078428;28;20071;-68
2023/07/08 09:59:45;;;;;;;;;;;26.40;45.40;;;;;;5077918;28;20037;-68
2023/07/08 10:02:29;;;;;;;;;;;26.50;44.60;;;;;;5078354;28;20390;-68
2023/07/08 10:05:00;;;;;;;;;;;26.50;45.40;;;;;;5077681;28;20017;-68
2023/07/08 10:07:31;;;;;;;;;;;26.60;47.20;;;;;;5077766;28;20044;-68
2023/07/08 10:09:59;;;;;;;;;;;26.60;44.10;;;;;;5077741;28;20414;-68
2023/07/08 10:12:26;;;;;;;;;;;26.70;46.60;;;;;;5078147;28;20325;-68
2023/07/08 10:14:54;;;;;;;;;;;26.70;46.30;;;;;;5077973;28;20001;-68
2023/07/08 10:17:22;;;;;;;;;;;26.80;45.50;;;;;;5077806;28;20045;-68
2023/07/08 10:19:48;;;;;;;;;;;26.80;42.60;;;;;;5078271;28;20005;-68
2023/07/08 10:22:23;;;;;;;;;;;26.90;42.60;;;;;;5078147;28;20001;-68
2023/07/08 10:24:59;;;;;;;;;;;27.00;44.20;;;;;;5077535;28;20023;-67
2023/07/08 10:27:31;;;;;;;;;;;27.00;41.80;;;;;;5077722;28;19997;-67
2023/07/08 10:30:03;;;;;;;;;;;27.10;40.00;;;;;;5077774;28;20040;-67
2023/07/08 10:32:35;;;;;;;;;;;27.10;40.00;;;;;;5078086;28;19997;-67
2023/07/08 10:35:05;;;;;;;;;;;27.20;39.30;;;;;;5077406;28;20163;-68
2023/07/08 10:37:41;;;;;;;;;;;27.20;40.60;;;;;;5077163;28;20108;-67
2023/07/08 10:40:15;;;;;;;;;;;27.30;39.30;;;;;;5077465;28;20001;-68
2023/07/08 10:42:47;;;;;;;;;;;27.30;40.30;;;;;;5077513;28;20008;-68
2023/07/08 10:45:17;;;;;;;;;;;27.40;39.90;;;;;;5077212;28;20013;-68
2023/07/08 10:47:49;;;;;;;;;;;27.40;39.20;;;;;;5077670;28;20132;-68
2023/07/08 10:50:23;;;;;;;;;;;27.40;36.90;;;;;;5077478;28;20079;-68
2023/07/08 10:52:58;;;;;;;;;;;27.50;38.30;;;;;;5077996;28;20007;-68
2023/07/08 10:55:31;;;;;;;;;;;27.70;35.70;;;;;;5077369;28;20023;-68
2023/07/08 10:58:09;;;;;;;;;;;27.80;36.50;;;;;;5077457;28;20514;-70
2023/07/08 11:00:41;;;;;;;;;;;27.80;37.30;;;;;;5077917;28;20325;-69
2023/07/08 11:03:41;;;;;;;;;;;27.80;36.50;;;;;;5077634;28;20102;-68
2023/07/08 11:06:10;;;;;;;;;;;27.90;37.90;;;;;;5017091;28;20032;-68
2023/07/08 11:08:42;;;;;;;;;;;28.00;38.90;;;;;;5017327;28;20004;-68
2023/07/08 11:11:10;;;;;;;;;;;28.10;35.90;;;;;;5045765;28;20333;-68
2023/07/08 11:13:41;;;;;;;;;;;28.20;33.80;;;;;;5076955;28;20426;-68
2023/07/08 11:16:11;;;;;;;;;;;28.20;34.10;;;;;;5078383;28;20091;-68
2023/07/08 11:18:40;;;;;;;;;;;28.30;33.60;;;;;;5078866;28;20008;-67
2023/07/08 11:21:09;;;;;;;;;;;28.40;35.30;;;;;;5078528;28;20426;-67
2023/07/08 11:23:38;;;;;;;;;;;28.50;34.80;;;;;;5078848;28;20407;-67
2023/07/08 11:26:10;;;;;;;;;;;28.80;31.60;;;;;;5077400;28;20019;-67
2023/07/08 11:28:37;;;;;;;;;;;29.40;33.30;;;;;;5078534;28;20063;-68
2023/07/08 11:31:05;;;;;;;;;;;30.60;31.20;;;;;;5080851;28;20012;-67
2023/07/08 11:33:32;;;;;;;;;;;32.00;30.40;;;;;;5084791;28;20037;-68
2023/07/08 11:36:01;;;;;;;;;;;33.30;27.30;;;;;;5083777;28;20001;-68
2023/07/08 11:38:27;;;;;;;;;;;34.40;25.40;;;;;;5083489;28;20064;-68
2023/07/08 11:40:56;;;;;;;;;;;35.40;22.90;;;;;;5083215;28;20338;-68
2023/07/08 11:43:25;;;;;;;;;;;36.10;21.70;;;;;;5080285;28;20062;-68
2023/07/08 11:45:54;;;;;;;;;;;36.80;20.40;;;;;;5078949;28;20017;-68
2023/07/08 11:48:23;;;;;;;;;;;37.60;19.00;;;;;;5076898;28;20008;-68
2023/07/08 11:50:51;;;;;;;;;;;38.30;17.50;;;;;;5076348;28;20001;-68
2023/07/08 11:53:33;;;;;;;;;;;38.80;17.10;;;;;;5076122;28;20060;-68
2023/07/08 11:56:01;;;;;;;;;;;39.20;16.00;;;;;;5075820;28;19997;-68
2023/07/08 11:58:31;;;;;;;;;;;39.60;14.10;;;;;;5076458;28;20016;-68
2023/07/08 12:00:59;;;;;;;;;;;39.90;13.70;;;;;;5075878;28;20009;-67
2023/07/08 12:03:32;;;;;;;;;;;40.20;13.40;;;;;;5077873;28;20088;-68
2023/07/08 12:06:02;;;;;;;;;;;39.90;12.20;;;;;;5078631;28;20138;-69
2023/07/08 12:08:34;;;;;;;;;;;39.80;12.40;;;;;;5077951;28;20052;-69
2023/07/08 12:11:00;;;;;;;;;;;39.80;11.50;;;;;;5076607;28;19998;-67
2023/07/08 12:13:30;;;;;;;;;;;39.90;11.60;;;;;;5076291;28;20469;-67
2023/07/08 12:15:56;;;;;;;;;;;39.60;11.00;;;;;;5075449;28;20091;-67
2023/07/08 12:18:25;;;;;;;;;;;39.60;11.80;;;;;;5075641;28;20001;-68
2023/07/08 12:20:53;;;;;;;;;;;39.80;12.10;;;;;;5076443;28;20327;-69
2023/07/08 12:23:21;;;;;;;;;;;39.90;11.40;;;;;;5075668;28;20053;-68
2023/07/08 12:25:48;;;;;;;;;;;40.10;11.30;;;;;;5075968;28;20017;-68
2023/07/08 12:28:15;;;;;;;;;;;40.20;11.30;;;;;;5076663;28;20011;-67
2023/07/08 12:30:44;;;;;;;;;;;40.30;11.00;;;;;;5076853;28;20011;-68
2023/07/08 12:33:12;;;;;;;;;;;40.40;11.30;;;;;;5077117;28;20002;-68
2023/07/08 12:35:39;;;;;;;;;;;40.40;10.70;;;;;;5076929;28;20005;-66
2023/07/08 12:38:11;;;;;;;;;;;40.40;10.70;;;;;;5076015;28;20108;-68
2023/07/08 12:40:38;;;;;;;;;;;40.40;10.30;;;;;;5075893;28;20430;-68
2023/07/08 12:43:10;;;;;;;;;;;40.50;9.80;;;;;;5076091;28;20438;-68
2023/07/08 12:45:37;;;;;;;;;;;40.60;9.30;;;;;;5076278;28;20023;-68
2023/07/08 12:48:07;;;;;;;;;;;40.80;9.50;;;;;;5075785;28;20333;-68
2023/07/08 12:50:34;;;;;;;;;;;40.80;9.90;;;;;;5076956;28;19997;-68
2023/07/08 12:53:04;;;;;;;;;;;40.60;9.80;;;;;;5076392;28;20095;-68
2023/07/08 12:55:30;;;;;;;;;;;40.50;10.30;;;;;;5075554;28;20082;-68
2023/07/08 12:57:57;;;;;;;;;;;40.60;10.00;;;;;;5075950;28;20110;-68
2023/07/08 13:00:25;;;;;;;;;;;40.70;9.10;;;;;;5075753;28;20035;-68
2023/07/08 13:02:56;;;;;;;;;;;41.00;9.60;;;;;;5076091;28;20001;-67
2023/07/08 13:05:24;;;;;;;;;;;41.00;9.40;;;;;;5075662;28;19997;-66
2023/07/08 13:07:52;;;;;;;;;;;41.00;8.70;;;;;;5075598;28;20044;-67
2023/07/08 13:10:20;;;;;;;;;;;41.00;8.70;;;;;;5075354;28;20011;-67
2023/07/08 13:12:48;;;;;;;;;;;40.80;8.20;;;;;;5076505;28;20047;-67
2023/07/08 13:15:18;;;;;;;;;;;40.70;8.90;;;;;;5079297;28;20388;-68
2023/07/08 13:17:45;;;;;;;;;;;40.70;8.60;;;;;;5078959;28;19997;-68
2023/07/08 13:20:14;;;;;;;;;;;40.70;8.80;;;;;;5079433;28;20001;-68
2023/07/08 13:22:43;;;;;;;;;;;40.70;8.50;;;;;;5079262;28;20046;-68
2023/07/08 13:25:14;;;;;;;;;;;40.40;8.10;;;;;;5079259;28;20095;-68
2023/07/08 13:27:40;;;;;;;;;;;40.40;8.60;;;;;;5078862;28;20013;-68
2023/07/08 13:30:18;;;;;;;;;;;40.30;8.30;;;;;;5079409;28;20104;-68
2023/07/08 13:32:44;;;;;;;;;;;39.80;7.80;;;;;;5079098;28;19997;-67
2023/07/08 13:35:21;;;;;;;;;;;39.60;7.80;;;;;;5078635;28;20111;-67
2023/07/08 13:37:50;;;;;;;;;;;39.70;8.90;;;;;;5078789;28;20127;-68
2023/07/08 13:40:16;;;;;;;;;;;39.90;8.50;;;;;;5078652;28;20430;-67
2023/07/08 13:42:47;;;;;;;;;;;40.00;8.40;;;;;;5078862;28;20001;-67
2023/07/08 13:45:15;;;;;;;;;;;39.60;8.70;;;;;;5079437;28;20001;-67
2023/07/08 13:47:41;;;;;;;;;;;39.50;8.50;;;;;;5078809;28;20104;-68
2023/07/08 13:50:17;;;;;;;;;;;39.60;8.50;;;;;;5079954;28;20011;-68
2023/07/08 13:52:44;;;;;;;;;;;39.90;8.40;;;;;;5079697;28;20040;-68
2023/07/08 13:55:18;;;;;;;;;;;40.00;8.20;;;;;;5079398;28;20096;-68
2023/07/08 13:57:45;;;;;;;;;;;40.20;8.00;;;;;;5078960;28;20308;-68
2023/07/08 14:00:12;;;;;;;;;;;40.30;8.60;;;;;;5080004;28;20321;-68
2023/07/08 14:02:40;;;;;;;;;;;40.10;8.10;;;;;;5079320;28;20048;-68
2023/07/08 14:05:10;;;;;;;;;;;40.10;8.60;;;;;;5079989;28;20001;-69
2023/07/08 14:07:38;;;;;;;;;;;40.20;8.40;;;;;;5079955;28;20075;-68
2023/07/08 14:10:08;;;;;;;;;;;40.30;8.50;;;;;;5079674;28;20044;-68
2023/07/08 14:12:36;;;;;;;;;;;40.30;8.00;;;;;;5078930;28;20001;-67
2023/07/08 14:15:03;;;;;;;;;;;40.30;8.00;;;;;;5080237;28;20012;-67
2023/07/08 14:17:30;;;;;;;;;;;40.60;7.90;;;;;;5081767;28;20111;-68
2023/07/08 14:19:57;;;;;;;;;;;40.50;7.70;;;;;;5083791;28;20095;-68
2023/07/08 14:22:24;;;;;;;;;;;40.70;8.20;;;;;;5080843;28;20001;-69
2023/07/08 14:24:51;;;;;;;;;;;40.60;8.20;;;;;;5079219;28;20001;-68